Time,TemperatureF,DewpointF,PressureIn,WindDirection,WindDirectionDegrees,WindSpeedMPH,WindSpeedGustMPH,Humidity,HourlyPrecipIn,Conditions,Clouds,dailyrainin,SoftwareType,DateUTC
2013-01-27 00:00:00,12.8,3.2,30.28,North,360,0.0,0.0,65,0.00,CLR,,0.00,WeatherDisplay:10.37,2013-01-27 05:00:00,
2013-01-27 00:01:00,12.8,3.2,30.28,North,360,0.0,0.0,65,0.00,CLR,,0.00,WeatherDisplay:10.37,2013-01-27 05:01:00,
2013-01-27 00:07:00,12.6,3.1,30.28,North,5,1.0,2.3,65,0.00,CLR,,0.00,WeatherDisplay:10.37,2013-01-27 05:07:00,
2013-01-27 00:12:00,12.6,3.4,30.28,North,5,2.1,3.5,66,0.00,CLR,,0.00,WeatherDisplay:10.37,2013-01-27 05:12:00,
2013-01-27 00:17:00,12.4,3.2,30.28,North,5,0.0,0.0,66,0.00,CLR,,0.00,WeatherDisplay:10.37,2013-01-27 05:17:00,
2013-01-27 00:22:00,12.1,2.9,30.28,North,5,0.0,0.0,66,0.00,CLR,,0.00,WeatherDisplay:10.37,2013-01-27 05:22:00,
2013-01-27 00:27:00,12.1,3.2,30.28,North,5,0.2,2.3,67,0.00,CLR,,0.00,WeatherDisplay:10.37,2013-01-27 05:27:00,
2013-01-27 00:33:00,12.1,3.2,30.28,NE,51,0.0,0.0,67,0.00,CLR,,0.00,WeatherDisplay:10.37,2013-01-27 05:33:00,
2013-01-27 00:38:00,12.1,3.2,30.28,NE,51,0.9,3.5,67,0.00,CLR,,0.00,WeatherDisplay:10.37,2013-01-27 05:38:00,
2013-01-27 00:43:00,12.1,2.9,30.28,NE,51,0.2,1.0,66,0.00,CLR,,0.00,WeatherDisplay:10.37,2013-01-27 05:43:00,
2013-01-27 00:49:00,12.1,3.2,30.28,NE,51,0.5,1.1,67,0.00,CLR,,0.00,WeatherDisplay:10.37,2013-01-27 05:49:00,
2013-01-27 00:54:00,11.9,3.0,30.28,NE,51,0.0,1.1,67,0.00,CLR,,0.00,WeatherDisplay:10.37,2013-01-27 05:54:00,
2013-01-27 00:59:00,11.7,2.8,30.28,NE,51,0.0,0.0,67,0.00,CLR,,0.00,WeatherDisplay:10.37,2013-01-27 05:59:00,
2013-01-27 01:05:00,11.6,2.8,30.28,NE,51,0.0,0.0,67,0.00,CLR,,0.00,WeatherDisplay:10.37,2013-01-27 06:05:00,
2013-01-27 01:10:00,11.6,3.1,30.28,NE,51,0.0,0.0,68,0.00,CLR,,0.00,WeatherDisplay:10.37,2013-01-27 06:10:00,
2013-01-27 01:15:00,11.4,2.9,30.28,NE,51,0.0,0.0,68,0.00,CLR,,0.00,WeatherDisplay:10.37,2013-01-27 06:15:00,
2013-01-27 01:20:00,11.4,2.9,30.28,NE,51,0.1,1.1,68,0.00,CLR,,0.00,WeatherDisplay:10.37,2013-01-27 06:20:00,
2013-01-27 01:25:00,11.4,3.2,30.29,NE,51,0.0,0.0,69,0.00,CLR,,0.00,WeatherDisplay:10.37,2013-01-27 06:25:00,
2013-01-27 01:31:00,11.2,3.0,30.29,NE,51,0.0,0.0,69,0.00,CLR,,0.00,WeatherDisplay:10.37,2013-01-27 06:31:00,
2013-01-27 01:36:00,10.7,3.1,30.29,NE,51,0.0,0.0,71,0.00,CLR,,0.00,WeatherDisplay:10.37,2013-01-27 06:36:00,
2013-01-27 01:41:00,10.2,3.0,30.30,NE,51,0.0,0.0,72,0.00,CLR,,0.00,WeatherDisplay:10.37,2013-01-27 06:41:00,
2013-01-27 01:46:00,10.0,2.8,30.30,NE,51,0.0,0.0,72,0.00,CLR,,0.00,WeatherDisplay:10.37,2013-01-27 06:46:00,
2013-01-27 01:51:00,9.9,3.0,30.30,NE,51,0.0,0.0,73,0.00,CLR,,0.00,WeatherDisplay:10.37,2013-01-27 06:51:00,
2013-01-27 01:56:00,9.9,3.3,30.30,NE,51,0.0,0.0,74,0.00,CLR,,0.00,WeatherDisplay:10.37,2013-01-27 06:56:00,
2013-01-27 02:02:00,9.7,3.1,30.30,NE,51,0.0,0.0,74,0.00,CLR,,0.00,WeatherDisplay:10.37,2013-01-27 07:02:00,
2013-01-27 02:07:00,9.7,3.1,30.30,NE,51,0.0,0.0,74,0.00,CLR,,0.00,WeatherDisplay:10.37,2013-01-27 07:07:00,
2013-01-27 02:13:00,9.3,3.0,30.31,NE,51,0.0,0.0,75,0.00,CLR,,0.00,WeatherDisplay:10.37,2013-01-27 07:13:00,
2013-01-27 02:18:00,9.0,2.7,30.31,NE,51,0.0,0.0,75,0.00,CLR,,0.00,WeatherDisplay:10.37,2013-01-27 07:18:00,
2013-01-27 02:24:00,8.4,2.4,30.31,NE,51,0.0,0.0,76,0.00,CLR,,0.00,WeatherDisplay:10.37,2013-01-27 07:24:00,
2013-01-27 02:29:00,8.1,2.4,30.31,NE,51,0.0,0.0,77,0.00,CLR,,0.00,WeatherDisplay:10.37,2013-01-27 07:29:00,
2013-01-27 02:34:00,8.1,2.7,30.32,NE,51,0.0,0.0,78,0.00,CLR,,0.00,WeatherDisplay:10.37,2013-01-27 07:34:00,
2013-01-27 02:39:00,8.1,2.7,30.32,NE,51,0.0,0.0,78,0.00,CLR,,0.00,WeatherDisplay:10.37,2013-01-27 07:39:00,
2013-01-27 02:45:00,8.1,2.7,30.32,NE,51,0.0,0.0,78,0.00,CLR,,0.00,WeatherDisplay:10.37,2013-01-27 07:45:00,
2013-01-27 02:50:00,7.9,2.5,30.32,NE,51,0.0,0.0,78,0.00,CLR,,0.00,WeatherDisplay:10.37,2013-01-27 07:50:00,
2013-01-27 02:55:00,7.7,2.5,30.32,NE,51,0.0,0.0,79,0.00,CLR,,0.00,WeatherDisplay:10.37,2013-01-27 07:55:00,
2013-01-27 03:00:00,7.6,2.4,30.32,NE,51,0.0,0.0,79,0.00,CLR,,0.00,WeatherDisplay:10.37,2013-01-27 08:00:00,
2013-01-27 03:05:00,7.4,2.3,30.32,NE,51,0.0,0.0,79,0.00,CLR,,0.00,WeatherDisplay:10.37,2013-01-27 08:05:00,
2013-01-27 03:11:00,7.0,1.9,30.32,NE,51,0.0,0.0,79,0.00,CLR,,0.00,WeatherDisplay:10.37,2013-01-27 08:11:00,
2013-01-27 03:16:00,6.7,1.8,30.32,NE,51,0.0,0.0,80,0.00,CLR,,0.00,WeatherDisplay:10.37,2013-01-27 08:16:00,
2013-01-27 03:21:00,6.5,1.9,30.32,NE,51,0.0,0.0,81,0.00,CLR,,0.00,WeatherDisplay:10.37,2013-01-27 08:21:00,
2013-01-27 03:26:00,6.5,1.9,30.32,NE,51,0.0,0.0,81,0.00,CLR,,0.00,WeatherDisplay:10.37,2013-01-27 08:26:00,
2013-01-27 03:31:00,6.5,2.2,30.32,NE,51,0.0,0.0,82,0.00,CLR,,0.00,WeatherDisplay:10.37,2013-01-27 08:31:00,
2013-01-27 03:36:00,6.5,2.2,30.33,NE,51,0.0,0.0,82,0.00,CLR,,0.00,WeatherDisplay:10.37,2013-01-27 08:36:00,
2013-01-27 03:41:00,6.5,2.2,30.33,NE,51,0.0,0.0,82,0.00,CLR,,0.00,WeatherDisplay:10.37,2013-01-27 08:41:00,
2013-01-27 03:46:00,6.3,2.2,30.33,NE,51,0.0,0.0,83,0.00,CLR,,0.00,WeatherDisplay:10.37,2013-01-27 08:46:00,
2013-01-27 03:52:00,6.5,2.4,30.33,NE,51,0.0,0.0,83,0.00,CLR,,0.00,WeatherDisplay:10.37,2013-01-27 08:52:00,
2013-01-27 03:57:00,6.5,2.4,30.33,NE,51,0.0,0.0,83,0.00,CLR,,0.00,WeatherDisplay:10.37,2013-01-27 08:57:00,
2013-01-27 04:02:00,6.5,2.4,30.33,South,179,2.1,2.3,83,0.00,CLR,,0.00,WeatherDisplay:10.37,2013-01-27 09:02:00,
2013-01-27 04:07:00,6.3,2.2,30.33,South,179,0.0,0.0,83,0.00,CLR,,0.00,WeatherDisplay:10.37,2013-01-27 09:07:00,
2013-01-27 04:12:00,6.5,2.4,30.33,South,180,0.0,0.0,83,0.00,CLR,,0.00,WeatherDisplay:10.37,2013-01-27 09:12:00,
2013-01-27 04:17:00,6.5,2.4,30.33,South,180,0.0,0.0,83,0.00,CLR,,0.00,WeatherDisplay:10.37,2013-01-27 09:17:00,
2013-01-27 04:22:00,6.7,2.6,30.33,South,180,0.1,1.0,83,0.00,CLR,,0.00,WeatherDisplay:10.37,2013-01-27 09:22:00,
2013-01-27 04:27:00,6.9,2.8,30.33,South,180,0.3,1.1,83,0.00,CLR,,0.00,WeatherDisplay:10.37,2013-01-27 09:27:00,
2013-01-27 04:33:00,6.7,2.4,30.33,South,180,1.7,2.3,82,0.00,CLR,,0.00,WeatherDisplay:10.37,2013-01-27 09:33:00,
2013-01-27 04:38:00,6.9,2.8,30.33,South,180,0.3,2.3,83,0.00,CLR,,0.00,WeatherDisplay:10.37,2013-01-27 09:38:00,
2013-01-27 04:43:00,7.0,2.9,30.33,South,179,0.2,1.1,83,0.00,CLR,,0.00,WeatherDisplay:10.37,2013-01-27 09:43:00,
2013-01-27 04:48:00,7.0,2.7,30.33,South,180,0.0,0.0,82,0.00,CLR,,0.00,WeatherDisplay:10.37,2013-01-27 09:48:00,
2013-01-27 04:53:00,7.0,2.7,30.33,South,180,0.3,1.1,82,0.00,CLR,,0.00,WeatherDisplay:10.37,2013-01-27 09:53:00,
2013-01-27 04:58:00,7.2,2.9,30.33,SSW,201,0.3,2.3,82,0.00,CLR,,0.00,WeatherDisplay:10.37,2013-01-27 09:58:00,
2013-01-27 05:03:00,7.2,2.9,30.33,SSW,201,1.2,2.3,82,0.00,CLR,,0.00,WeatherDisplay:10.37,2013-01-27 10:03:00,
2013-01-27 05:09:00,7.0,2.7,30.33,SSW,201,1.8,3.5,82,0.00,CLR,,0.00,WeatherDisplay:10.37,2013-01-27 10:09:00,
2013-01-27 05:14:00,7.2,2.9,30.33,SSW,201,0.2,0.0,82,0.00,CLR,,0.00,WeatherDisplay:10.37,2013-01-27 10:14:00,
2013-01-27 05:19:00,7.2,2.9,30.33,SSW,201,0.2,1.1,82,0.00,CLR,,0.00,WeatherDisplay:10.37,2013-01-27 10:19:00,
2013-01-27 05:24:00,7.4,3.1,30.34,SSW,201,0.0,0.0,82,0.00,CLR,,0.00,WeatherDisplay:10.37,2013-01-27 10:24:00,
2013-01-27 05:29:00,7.4,3.1,30.34,SSW,201,0.0,0.0,82,0.00,CLR,,0.00,WeatherDisplay:10.37,2013-01-27 10:29:00,
2013-01-27 05:34:00,7.6,3.3,30.34,SSW,201,0.0,0.0,82,0.00,CLR,,0.00,WeatherDisplay:10.37,2013-01-27 10:34:00,
2013-01-27 05:39:00,7.6,3.3,30.34,SSW,201,0.0,0.0,82,0.00,CLR,,0.00,WeatherDisplay:10.37,2013-01-27 10:39:00,
2013-01-27 05:44:00,7.6,3.3,30.34,SSW,201,0.0,0.0,82,0.00,CLR,,0.00,WeatherDisplay:10.37,2013-01-27 10:44:00,
2013-01-27 05:50:00,7.4,2.8,30.35,WSW,254,0.1,1.1,81,0.00,CLR,,0.00,WeatherDisplay:10.37,2013-01-27 10:50:00,
2013-01-27 05:55:00,7.0,2.4,30.35,WSW,254,1.0,2.3,81,0.00,CLR,,0.00,WeatherDisplay:10.37,2013-01-27 10:55:00,
2013-01-27 06:00:00,6.9,2.6,30.35,WSW,254,0.2,1.1,82,0.00,CLR,,0.00,WeatherDisplay:10.37,2013-01-27 11:00:00,
2013-01-27 06:05:00,6.7,2.6,30.35,WSW,254,1.9,2.3,83,0.00,CLR,,0.00,WeatherDisplay:10.37,2013-01-27 11:05:00,
2013-01-27 06:10:00,6.3,2.2,30.35,WSW,254,0.0,0.0,83,0.00,CLR,,0.00,WeatherDisplay:10.37,2013-01-27 11:10:00,
2013-01-27 06:15:00,6.3,2.2,30.36,WSW,254,0.8,2.3,83,0.00,CLR,,0.00,WeatherDisplay:10.37,2013-01-27 11:15:00,
2013-01-27 06:20:00,6.3,2.5,30.36,WSW,254,0.0,0.0,84,0.00,CLR,,0.00,WeatherDisplay:10.37,2013-01-27 11:20:00,
2013-01-27 06:25:00,6.3,2.5,30.36,WSW,254,1.1,3.5,84,0.00,CLR,,0.00,WeatherDisplay:10.37,2013-01-27 11:25:00,
2013-01-27 06:30:00,6.1,2.0,30.37,WSW,244,1.6,3.5,83,0.00,CLR,,0.00,WeatherDisplay:10.37,2013-01-27 11:30:00,
2013-01-27 06:35:00,6.3,2.5,30.37,WSW,244,1.1,2.3,84,0.00,CLR,,0.00,WeatherDisplay:10.37,2013-01-27 11:35:00,
2013-01-27 06:40:00,6.3,2.5,30.37,WSW,244,1.2,3.0,84,0.00,CLR,,0.00,WeatherDisplay:10.37,2013-01-27 11:40:00,
2013-01-27 06:46:00,6.3,2.5,30.37,WSW,242,1.4,3.5,84,0.00,CLR,,0.00,WeatherDisplay:10.37,2013-01-27 11:46:00,
2013-01-27 06:51:00,6.3,2.5,30.37,WSW,242,0.8,2.3,84,0.00,CLR,,0.00,WeatherDisplay:10.37,2013-01-27 11:51:00,
2013-01-27 06:56:00,6.5,2.7,30.37,WSW,242,0.2,2.3,84,0.00,CLR,,0.00,WeatherDisplay:10.37,2013-01-27 11:56:00,
2013-01-27 07:01:00,6.5,2.7,30.37,WSW,242,0.5,2.0,84,0.00,CLR,,0.00,WeatherDisplay:10.37,2013-01-27 12:01:00,
2013-01-27 07:06:00,6.7,2.9,30.37,WSW,242,0.1,1.1,84,0.00,CLR,,0.00,WeatherDisplay:10.37,2013-01-27 12:06:00,
2013-01-27 07:12:00,6.5,2.7,30.37,WSW,242,0.0,0.0,84,0.00,CLR,,0.00,WeatherDisplay:10.37,2013-01-27 12:12:00,
2013-01-27 07:17:00,6.5,2.7,30.38,WSW,242,1.1,2.3,84,0.00,CLR,,0.00,WeatherDisplay:10.37,2013-01-27 12:17:00,
2013-01-27 07:22:00,6.1,2.3,30.38,WSW,242,0.4,2.3,84,0.00,CLR,,0.00,WeatherDisplay:10.37,2013-01-27 12:22:00,
2013-01-27 07:27:00,6.1,2.3,30.38,WSW,242,0.0,0.0,84,0.00,CLR,,0.00,WeatherDisplay:10.37,2013-01-27 12:27:00,
2013-01-27 07:32:00,6.3,2.8,30.38,WSW,242,0.1,1.1,85,0.00,CLR,,0.00,WeatherDisplay:10.37,2013-01-27 12:32:00,
2013-01-27 07:37:00,6.5,3.0,30.38,WSW,242,0.0,2.3,85,0.00,CLR,,0.00,WeatherDisplay:10.37,2013-01-27 12:37:00,
2013-01-27 07:43:00,6.7,3.1,30.39,WSW,242,0.0,3.5,85,0.00,CLR,,0.00,WeatherDisplay:10.37,2013-01-27 12:43:00,
2013-01-27 07:48:00,6.9,3.3,30.39,WSW,242,0.0,2.3,85,0.00,CLR,,0.00,WeatherDisplay:10.37,2013-01-27 12:48:00,
2013-01-27 07:53:00,6.9,3.3,30.40,WSW,242,0.0,0.0,85,0.00,CLR,,0.00,WeatherDisplay:10.37,2013-01-27 12:53:00,
2013-01-27 07:58:00,7.2,3.6,30.40,WSW,242,0.1,1.1,85,0.00,CLR,,0.00,WeatherDisplay:10.37,2013-01-27 12:58:00,
2013-01-27 08:04:00,7.6,4.3,30.40,WSW,242,0.0,0.0,86,0.00,CLR,,0.00,WeatherDisplay:10.37,2013-01-27 13:04:00,
2013-01-27 08:09:00,8.3,5.0,30.40,WSW,242,0.0,0.0,86,0.00,CLR,,0.00,WeatherDisplay:10.37,2013-01-27 13:09:00,
2013-01-27 08:14:00,8.6,5.0,30.40,SSE,160,1.1,3.5,85,0.00,CLR,,0.00,WeatherDisplay:10.37,2013-01-27 13:14:00,
2013-01-27 08:19:00,9.9,6.6,30.40,WSW,250,0.3,1.1,86,0.00,CLR,,0.00,WeatherDisplay:10.37,2013-01-27 13:19:00,
2013-01-27 08:24:00,10.9,7.3,30.40,WSW,250,0.0,0.0,85,0.00,CLR,,0.00,WeatherDisplay:10.37,2013-01-27 13:24:00,
2013-01-27 08:29:00,11.6,7.7,30.40,WSW,250,0.0,1.1,84,0.00,CLR,,0.00,WeatherDisplay:10.37,2013-01-27 13:29:00,
2013-01-27 08:35:00,12.3,8.1,30.40,WSW,250,0.0,0.0,83,0.00,CLR,,0.00,WeatherDisplay:10.37,2013-01-27 13:35:00,
2013-01-27 08:40:00,13.5,9.3,30.40,WSW,250,0.0,1.1,83,0.00,CLR,,0.00,WeatherDisplay:10.37,2013-01-27 13:40:00,
2013-01-27 08:45:00,14.8,10.0,30.41,WSW,250,0.0,1.1,81,0.00,CLR,,0.00,WeatherDisplay:10.37,2013-01-27 13:45:00,
2013-01-27 08:50:00,15.9,10.5,30.41,WSW,250,0.0,0.0,79,0.00,CLR,,0.00,WeatherDisplay:10.37,2013-01-27 13:50:00,
2013-01-27 08:55:00,16.5,10.8,30.41,WSW,250,0.1,1.1,78,0.00,CLR,,0.00,WeatherDisplay:10.37,2013-01-27 13:55:00,
2013-01-27 09:01:00,17.8,10.9,30.41,WSW,250,0.0,0.0,74,0.00,CLR,,0.00,WeatherDisplay:10.37,2013-01-27 14:01:00,
2013-01-27 09:06:00,18.6,10.8,30.41,NW,319,0.6,3.5,71,0.00,CLR,,0.00,WeatherDisplay:10.37,2013-01-27 14:06:00,
2013-01-27 09:11:00,19.1,10.9,30.41,NNW,329,0.1,1.1,70,0.00,CLR,,0.00,WeatherDisplay:10.37,2013-01-27 14:11:00,
2013-01-27 09:16:00,19.5,10.3,30.41,NNE,19,2.6,6.9,67,0.00,CLR,,0.00,WeatherDisplay:10.37,2013-01-27 14:16:00,
2013-01-27 09:22:00,20.0,10.1,30.41,North,355,2.6,6.9,65,0.00,CLR,,0.00,WeatherDisplay:10.37,2013-01-27 14:22:00,
2013-01-27 09:27:00,20.5,10.2,30.41,North,355,4.4,6.0,64,0.00,CLR,,0.00,WeatherDisplay:10.37,2013-01-27 14:27:00,
2013-01-27 09:32:00,20.6,10.0,30.41,NW,307,1.6,2.3,63,0.00,CLR,,0.00,WeatherDisplay:10.37,2013-01-27 14:32:00,
2013-01-27 09:37:00,21.0,9.6,30.41,West,281,4.0,6.9,61,0.00,CLR,,0.00,WeatherDisplay:10.37,2013-01-27 14:37:00,
2013-01-27 09:42:00,21.1,9.4,30.42,NW,314,5.2,6.0,60,0.00,CLR,,0.00,WeatherDisplay:10.37,2013-01-27 14:42:00,
2013-01-27 09:47:00,21.3,9.2,30.42,NW,322,3.2,5.8,59,0.00,CLR,,0.00,WeatherDisplay:10.37,2013-01-27 14:47:00,
2013-01-27 09:52:00,21.4,9.3,30.42,WNW,291,0.8,2.3,59,0.00,CLR,,0.00,WeatherDisplay:10.37,2013-01-27 14:52:00,
2013-01-27 09:57:00,21.8,9.3,30.42,NW,318,4.3,9.2,58,0.00,CLR,,0.00,WeatherDisplay:10.37,2013-01-27 14:57:00,
2013-01-27 10:02:00,22.1,8.8,30.42,NW,325,4.6,10.4,56,0.00,CLR,,0.00,WeatherDisplay:10.37,2013-01-27 15:02:00,
2013-01-27 10:07:00,22.2,8.5,30.43,NW,322,4.6,9.0,55,0.00,CLR,,0.00,WeatherDisplay:10.37,2013-01-27 15:07:00,
2013-01-27 10:13:00,22.4,8.2,30.43,NNW,336,4.2,6.9,54,0.00,CLR,,0.00,WeatherDisplay:10.37,2013-01-27 15:13:00,
2013-01-27 10:18:00,22.7,8.5,30.44,NE,54,5.0,6.9,54,0.00,CLR,,0.00,WeatherDisplay:10.37,2013-01-27 15:18:00,
2013-01-27 10:23:00,22.9,8.3,30.44,North,355,5.5,5.8,53,0.00,CLR,,0.00,WeatherDisplay:10.37,2013-01-27 15:23:00,
2013-01-27 10:28:00,23.2,8.6,30.44,NNE,16,4.9,11.5,53,0.00,CLR,,0.00,WeatherDisplay:10.37,2013-01-27 15:28:00,
2013-01-27 10:33:00,23.5,8.0,30.44,NNW,329,4.0,4.0,51,0.00,CLR,,0.00,WeatherDisplay:10.37,2013-01-27 15:33:00,
2013-01-27 10:38:00,23.8,8.3,30.44,North,5,0.7,3.5,51,0.00,CLR,,0.00,WeatherDisplay:10.37,2013-01-27 15:38:00,
2013-01-27 10:43:00,24.2,8.7,30.44,NNE,20,8.4,11.5,51,0.00,CLR,,0.00,WeatherDisplay:10.37,2013-01-27 15:43:00,
2013-01-27 10:49:00,24.2,8.2,30.44,NNE,14,4.9,6.9,50,0.00,CLR,,0.00,WeatherDisplay:10.37,2013-01-27 15:49:00,
2013-01-27 10:54:00,24.5,8.5,30.44,NNW,344,2.6,6.9,50,0.00,CLR,,0.00,WeatherDisplay:10.37,2013-01-27 15:54:00,
2013-01-27 10:59:00,25.0,9.0,30.44,NNW,344,3.5,5.0,50,0.00,CLR,,0.00,WeatherDisplay:10.37,2013-01-27 15:59:00,
2013-01-27 11:04:00,25.3,8.8,30.44,NNW,340,2.9,4.6,49,0.00,CLR,,0.00,WeatherDisplay:10.37,2013-01-27 16:04:00,
2013-01-27 11:09:00,25.7,9.2,30.44,NW,326,2.1,3.5,49,0.00,CLR,,0.00,WeatherDisplay:10.37,2013-01-27 16:09:00,
2013-01-27 11:14:00,26.0,8.0,30.44,NW,319,6.9,11.5,46,0.00,CLR,,0.00,WeatherDisplay:10.37,2013-01-27 16:14:00,
2013-01-27 11:19:00,25.8,8.3,30.44,NW,305,6.5,11.5,47,0.00,CLR,,0.00,WeatherDisplay:10.37,2013-01-27 16:19:00,
2013-01-27 11:24:00,25.6,8.1,30.44,WNW,287,2.3,3.5,47,0.00,CLR,,0.00,WeatherDisplay:10.37,2013-01-27 16:24:00,
2013-01-27 11:30:00,25.8,7.8,30.43,NW,313,4.2,11.5,46,0.00,CLR,,0.00,WeatherDisplay:10.37,2013-01-27 16:30:00,
2013-01-27 11:35:00,25.7,7.3,30.43,NW,317,7.2,9.0,45,0.00,CLR,,0.00,WeatherDisplay:10.37,2013-01-27 16:35:00,
2013-01-27 11:40:00,26.0,8.0,30.43,North,355,4.8,10.4,46,0.00,CLR,,0.00,WeatherDisplay:10.37,2013-01-27 16:40:00,
2013-01-27 11:45:00,26.4,7.9,30.43,NNW,336,2.7,3.5,45,0.00,CLR,,0.00,WeatherDisplay:10.37,2013-01-27 16:45:00,
2013-01-27 11:50:00,26.6,8.1,30.42,WNW,284,5.2,9.2,45,0.00,CLR,,0.00,WeatherDisplay:10.37,2013-01-27 16:50:00,
2013-01-27 11:55:00,26.7,7.2,30.42,WNW,290,4.8,6.9,43,0.00,CLR,,0.00,WeatherDisplay:10.37,2013-01-27 16:55:00,
2013-01-27 12:01:00,27.0,6.4,30.42,NNW,344,5.4,10.4,41,0.00,CLR,,0.00,WeatherDisplay:10.37,2013-01-27 17:01:00,
2013-01-27 12:06:00,27.2,6.6,30.42,NW,314,6.0,11.5,41,0.00,CLR,,0.00,WeatherDisplay:10.37,2013-01-27 17:06:00,
2013-01-27 12:11:00,27.5,6.3,30.42,NW,323,7.2,11.5,40,0.00,CLR,,0.00,WeatherDisplay:10.37,2013-01-27 17:11:00,
2013-01-27 12:16:00,27.8,8.2,30.42,NW,325,2.1,4.6,43,0.00,CLR,,0.00,WeatherDisplay:10.37,2013-01-27 17:16:00,
2013-01-27 12:21:00,28.2,7.5,30.42,NNW,327,0.6,2.3,41,0.00,CLR,,0.00,WeatherDisplay:10.37,2013-01-27 17:21:00,
2013-01-27 12:27:00,28.8,8.0,30.42,North,5,6.2,9.2,41,0.00,CLR,,0.00,WeatherDisplay:10.37,2013-01-27 17:27:00,
2013-01-27 12:32:00,29.0,8.2,30.41,NNW,348,5.7,6.9,41,0.00,CLR,,0.00,WeatherDisplay:10.37,2013-01-27 17:32:00,
2013-01-27 12:37:00,29.0,6.5,30.41,West,265,5.4,10.4,38,0.00,CLR,,0.00,WeatherDisplay:10.37,2013-01-27 17:37:00,
2013-01-27 12:42:00,29.4,6.9,30.40,NW,320,6.2,9.2,38,0.00,CLR,,0.00,WeatherDisplay:10.37,2013-01-27 17:42:00,
2013-01-27 12:47:00,29.5,7.0,30.40,WNW,300,1.6,5.8,38,0.00,CLR,,0.00,WeatherDisplay:10.37,2013-01-27 17:47:00,
2013-01-27 12:52:00,30.1,8.1,30.40,NNE,19,3.1,6.9,39,0.00,CLR,,0.00,WeatherDisplay:10.37,2013-01-27 17:52:00,
2013-01-27 12:57:00,30.1,7.5,30.39,NNW,327,2.5,4.6,38,0.00,CLR,,0.00,WeatherDisplay:10.37,2013-01-27 17:57:00,
2013-01-27 13:02:00,30.4,6.0,30.39,NNW,346,4.9,9.2,35,0.00,CLR,,0.00,WeatherDisplay:10.37,2013-01-27 18:02:00,
2013-01-27 13:08:00,30.3,5.9,30.39,North,350,4.3,9.2,35,0.00,CLR,,0.01,WeatherDisplay:10.37,2013-01-27 18:08:00,
2013-01-27 13:13:00,30.4,6.6,30.39,North,355,3.4,5.8,36,0.01,RA,,0.01,WeatherDisplay:10.37,2013-01-27 18:13:00,
2013-01-27 13:18:00,30.4,4.7,30.39,North,351,2.3,3.5,33,0.01,RA,,0.01,WeatherDisplay:10.37,2013-01-27 18:18:00,
2013-01-27 13:23:00,31.0,5.9,30.39,WNW,302,6.0,10.4,34,0.01,CLR,,0.01,WeatherDisplay:10.37,2013-01-27 18:23:00,
2013-01-27 13:28:00,31.0,2.4,30.39,North,355,3.6,10.4,29,0.01,,,0.01,WeatherDisplay:10.37,2013-01-27 18:28:00,
2013-01-27 13:33:00,30.9,3.0,30.39,NW,323,3.3,11.5,30,0.01,,,0.01,WeatherDisplay:10.37,2013-01-27 18:33:00,
2013-01-27 13:38:00,30.4,2.6,30.39,North,360,6.3,11.5,30,0.01,,,0.01,WeatherDisplay:10.37,2013-01-27 18:38:00,
2013-01-27 13:43:00,30.3,3.2,30.39,North,355,2.6,6.0,31,0.01,,,0.01,WeatherDisplay:10.37,2013-01-27 18:43:00,
2013-01-27 13:49:00,30.3,2.5,30.39,North,9,6.0,11.5,30,0.01,,,0.01,WeatherDisplay:10.37,2013-01-27 18:49:00,
2013-01-27 13:54:00,31.0,3.8,30.39,WNW,284,10.3,12.7,31,0.01,,,0.01,WeatherDisplay:10.37,2013-01-27 18:54:00,
2013-01-27 13:59:00,31.3,1.1,30.39,West,279,5.0,12.7,27,0.01,,,0.01,WeatherDisplay:10.37,2013-01-27 18:59:00,
2013-01-27 14:04:00,31.6,4.4,30.39,WNW,296,2.3,4.6,31,0.01,,,0.01,WeatherDisplay:10.37,2013-01-27 19:04:00,
2013-01-27 14:09:00,32.1,4.8,30.39,NE,34,4.0,6.9,31,0.00,CLR,,0.01,WeatherDisplay:10.37,2013-01-27 19:09:00,
2013-01-27 14:14:00,31.6,1.4,30.39,North,5,4.4,6.9,27,0.00,CLR,,0.01,WeatherDisplay:10.37,2013-01-27 19:14:00,
2013-01-27 14:20:00,31.2,2.6,30.39,NNW,338,5.8,10.4,29,0.00,CLR,,0.01,WeatherDisplay:10.37,2013-01-27 19:20:00,
2013-01-27 14:25:00,31.2,1.0,30.39,North,360,6.3,11.0,27,0.00,CLR,,0.01,WeatherDisplay:10.37,2013-01-27 19:25:00,
2013-01-27 14:30:00,30.7,1.4,30.39,NNE,21,2.8,6.9,28,0.00,CLR,,0.01,WeatherDisplay:10.37,2013-01-27 19:30:00,
2013-01-27 14:35:00,31.0,3.8,30.40,NNW,328,3.6,6.0,31,0.00,CLR,,0.01,WeatherDisplay:10.37,2013-01-27 19:35:00,
2013-01-27 14:40:00,31.2,1.8,30.40,NNW,332,8.3,11.5,28,0.00,CLR,,0.01,WeatherDisplay:10.37,2013-01-27 19:40:00,
2013-01-27 14:45:00,31.3,3.4,30.40,NNW,345,4.0,10.4,30,0.00,CLR,,0.01,WeatherDisplay:10.37,2013-01-27 19:45:00,
2013-01-27 14:51:00,31.2,2.6,30.40,NW,304,1.7,3.5,29,0.00,CLR,,0.01,WeatherDisplay:10.37,2013-01-27 19:51:00,
2013-01-27 14:56:00,31.3,3.4,30.39,NNE,18,0.1,2.3,30,0.00,CLR,,0.01,WeatherDisplay:10.37,2013-01-27 19:56:00,
2013-01-27 15:01:00,31.3,3.4,30.39,NNW,331,3.4,6.9,30,0.00,CLR,,0.01,WeatherDisplay:10.37,2013-01-27 20:01:00,
2013-01-27 15:06:00,31.0,3.1,30.39,NW,304,1.1,3.5,30,0.00,CLR,,0.01,WeatherDisplay:10.37,2013-01-27 20:06:00,
2013-01-27 15:12:00,31.3,2.7,30.39,NW,325,3.4,6.9,29,0.00,CLR,,0.01,WeatherDisplay:10.37,2013-01-27 20:12:00,
2013-01-27 15:17:00,31.3,2.7,30.39,North,355,3.4,5.8,29,0.00,CLR,,0.01,WeatherDisplay:10.37,2013-01-27 20:17:00,
2013-01-27 15:22:00,31.2,1.8,30.39,North,355,2.9,9.2,28,0.00,CLR,,0.01,WeatherDisplay:10.37,2013-01-27 20:22:00,
2013-01-27 15:27:00,30.9,3.0,30.39,NW,326,4.3,9.2,30,0.00,CLR,,0.01,WeatherDisplay:10.37,2013-01-27 20:27:00,
2013-01-27 15:33:00,30.9,2.3,30.40,NW,309,4.4,9.2,29,0.00,CLR,,0.01,WeatherDisplay:10.37,2013-01-27 20:33:00,
2013-01-27 15:38:00,30.6,2.1,30.39,NW,321,3.7,5.8,29,0.00,CLR,,0.01,WeatherDisplay:10.37,2013-01-27 20:38:00,
2013-01-27 15:43:00,30.6,2.8,30.39,NNW,333,1.9,3.5,30,0.00,CLR,,0.01,WeatherDisplay:10.37,2013-01-27 20:43:00,
2013-01-27 15:48:00,30.4,1.9,30.39,NW,314,1.9,4.6,29,0.00,CLR,,0.01,WeatherDisplay:10.37,2013-01-27 20:48:00,
2013-01-27 15:53:00,30.3,2.5,30.39,NW,321,2.1,3.5,30,0.00,CLR,,0.01,WeatherDisplay:10.37,2013-01-27 20:53:00,
2013-01-27 15:59:00,30.1,1.6,30.39,NNE,25,3.6,5.8,29,0.00,CLR,,0.01,WeatherDisplay:10.37,2013-01-27 20:59:00,
2013-01-27 16:06:00,30.0,2.3,30.39,North,11,0.0,3.5,30,0.00,CLR,,0.01,WeatherDisplay:10.37,2013-01-27 21:06:00,
2013-01-27 16:11:00,29.8,2.8,30.40,NW,319,3.0,4.6,31,0.00,RA,,0.01,WeatherDisplay:10.37,2013-01-27 21:11:00,
2013-01-27 16:17:00,29.7,2.0,30.40,WNW,296,1.4,3.5,30,0.00,RA,,0.01,WeatherDisplay:10.37,2013-01-27 21:17:00,
2013-01-27 16:22:00,29.7,2.7,30.40,North,360,0.4,3.5,31,0.00,CLR,,0.01,WeatherDisplay:10.37,2013-01-27 21:22:00,
2013-01-27 16:27:00,29.5,2.5,30.41,WNW,295,0.2,1.1,31,0.00,CLR,,0.01,WeatherDisplay:10.37,2013-01-27 21:27:00,
2013-01-27 16:32:00,29.4,3.1,30.41,NNW,335,2.9,3.5,32,0.00,CLR,,0.01,WeatherDisplay:10.37,2013-01-27 21:32:00,
2013-01-27 16:37:00,29.3,3.0,30.42,NW,323,1.3,5.8,32,0.00,CLR,,0.01,WeatherDisplay:10.37,2013-01-27 21:37:00,
2013-01-27 16:43:00,29.1,2.9,30.42,NNW,327,3.2,5.0,32,0.00,CLR,,0.01,WeatherDisplay:10.37,2013-01-27 21:43:00,
2013-01-27 16:48:00,28.8,2.6,30.42,NW,321,1.7,2.3,32,0.00,CLR,,0.01,WeatherDisplay:10.37,2013-01-27 21:48:00,
2013-01-27 16:53:00,28.7,2.5,30.42,NW,321,0.1,2.3,32,0.00,CLR,,0.01,WeatherDisplay:10.37,2013-01-27 21:53:00,
2013-01-27 16:59:00,28.5,2.3,30.41,NW,321,0.0,0.0,32,0.00,CLR,,0.01,WeatherDisplay:10.37,2013-01-27 21:59:00,
2013-01-27 17:04:00,28.4,2.2,30.42,NW,326,0.0,1.1,32,0.00,CLR,,0.01,WeatherDisplay:10.37,2013-01-27 22:04:00,
2013-01-27 17:09:00,28.2,2.1,30.42,North,11,0.3,1.1,32,0.00,CLR,,0.01,WeatherDisplay:10.37,2013-01-27 22:09:00,
2013-01-27 17:14:00,28.1,2.0,30.42,North,11,0.8,2.3,32,0.00,CLR,,0.01,WeatherDisplay:10.37,2013-01-27 22:14:00,
2013-01-27 17:20:00,27.9,1.1,30.42,North,11,0.2,1.1,31,0.00,CLR,,0.01,WeatherDisplay:10.37,2013-01-27 22:20:00,
2013-01-27 17:25:00,27.6,0.9,30.42,North,11,1.0,3.5,31,0.00,CLR,,0.01,WeatherDisplay:10.37,2013-01-27 22:25:00,
2013-01-27 17:30:00,27.5,1.4,30.42,North,11,1.6,3.5,32,0.00,CLR,,0.01,WeatherDisplay:10.37,2013-01-27 22:30:00,
2013-01-27 17:35:00,27.2,3.1,30.42,North,11,0.7,1.1,35,0.00,CLR,,0.01,WeatherDisplay:10.37,2013-01-27 22:35:00,
2013-01-27 17:40:00,26.7,4.5,30.42,North,11,0.1,1.1,38,0.00,CLR,,0.01,WeatherDisplay:10.37,2013-01-27 22:40:00,
2013-01-27 17:45:00,26.4,3.6,30.42,North,11,0.5,2.3,37,0.00,CLR,,0.01,WeatherDisplay:10.37,2013-01-27 22:45:00,
2013-01-27 17:50:00,26.1,3.9,30.42,North,11,0.0,0.0,38,0.00,CLR,,0.01,WeatherDisplay:10.37,2013-01-27 22:50:00,
2013-01-27 17:56:00,25.8,3.6,30.42,North,11,0.0,0.0,38,0.00,CLR,,0.01,WeatherDisplay:10.37,2013-01-27 22:56:00,
2013-01-27 18:01:00,25.6,4.6,30.42,North,11,0.0,0.0,40,0.00,CLR,,0.01,WeatherDisplay:10.37,2013-01-27 23:01:00,
2013-01-27 18:06:00,25.1,2.4,30.42,North,11,0.0,0.0,37,0.00,CLR,,0.01,WeatherDisplay:10.37,2013-01-27 23:06:00,
2013-01-27 18:11:00,25.0,2.9,30.42,North,11,0.0,0.0,38,0.00,CLR,,0.01,WeatherDisplay:10.37,2013-01-27 23:11:00,
2013-01-27 18:16:00,24.8,4.9,30.43,North,11,0.0,0.0,42,0.00,CLR,,0.01,WeatherDisplay:10.37,2013-01-27 23:16:00,
2013-01-27 18:22:00,24.5,4.6,30.42,North,11,0.0,0.0,42,0.00,CLR,,0.01,WeatherDisplay:10.37,2013-01-27 23:22:00,
2013-01-27 18:27:00,24.1,4.8,30.42,North,11,0.0,0.0,43,0.00,CLR,,0.01,WeatherDisplay:10.37,2013-01-27 23:27:00,
2013-01-27 18:32:00,23.6,4.8,30.42,North,11,0.2,1.1,44,0.00,CLR,,0.01,WeatherDisplay:10.37,2013-01-27 23:32:00,
2013-01-27 18:37:00,23.5,5.2,30.42,North,11,0.0,0.0,45,0.00,CLR,,0.01,WeatherDisplay:10.37,2013-01-27 23:37:00,
2013-01-27 18:42:00,23.3,6.5,30.43,North,11,0.0,0.0,48,0.00,CLR,,0.01,WeatherDisplay:10.37,2013-01-27 23:42:00,
2013-01-27 18:47:00,23.2,8.2,30.43,North,11,0.0,0.0,52,0.00,CLR,,0.01,WeatherDisplay:10.37,2013-01-27 23:47:00,
2013-01-27 18:52:00,23.0,9.6,30.43,North,11,0.0,0.0,56,0.00,CLR,,0.01,WeatherDisplay:10.37,2013-01-27 23:52:00,
2013-01-27 18:58:00,22.5,9.1,30.44,North,11,0.0,0.0,56,0.00,CLR,,0.01,WeatherDisplay:10.37,2013-01-27 23:58:00,
2013-01-27 19:03:00,22.2,7.6,30.44,North,11,0.0,0.0,53,0.00,CLR,,0.01,WeatherDisplay:10.37,2013-01-28 00:03:00,
2013-01-27 19:08:00,22.1,6.7,30.44,North,11,0.0,0.0,51,0.00,CLR,,0.01,WeatherDisplay:10.37,2013-01-28 00:08:00,
2013-01-27 19:14:00,21.9,8.2,30.44,North,11,0.0,0.0,55,0.00,CLR,,0.01,WeatherDisplay:10.37,2013-01-28 00:14:00,
2013-01-27 19:19:00,21.6,8.3,30.44,North,11,0.0,0.0,56,0.00,CLR,,0.01,WeatherDisplay:10.37,2013-01-28 00:19:00,
2013-01-27 19:24:00,21.4,7.7,30.44,North,11,0.0,0.0,55,0.00,CLR,,0.01,WeatherDisplay:10.37,2013-01-28 00:24:00,
2013-01-27 19:29:00,21.4,7.7,30.44,North,11,0.5,1.1,55,0.00,CLR,,0.01,WeatherDisplay:10.37,2013-01-28 00:29:00,
2013-01-27 19:34:00,21.4,8.1,30.44,North,11,0.0,0.0,56,0.00,CLR,,0.01,WeatherDisplay:10.37,2013-01-28 00:34:00,
2013-01-27 19:40:00,21.1,10.1,30.44,North,11,0.0,0.0,62,0.00,CLR,,0.01,WeatherDisplay:10.37,2013-01-28 00:40:00,
2013-01-27 19:45:00,20.8,10.9,30.44,North,11,0.0,0.0,65,0.00,CLR,,0.01,WeatherDisplay:10.37,2013-01-28 00:45:00,
2013-01-27 19:50:00,20.5,9.9,30.44,North,11,0.0,0.0,63,0.00,CLR,,0.01,WeatherDisplay:10.37,2013-01-28 00:50:00,
2013-01-27 19:55:00,20.5,8.8,30.44,North,11,0.2,1.1,60,0.00,CLR,,0.01,WeatherDisplay:10.37,2013-01-28 00:55:00,
2013-01-27 20:00:00,20.5,8.4,30.44,North,11,0.0,0.0,59,0.00,CLR,,0.01,WeatherDisplay:10.37,2013-01-28 01:00:00,
2013-01-27 20:05:00,20.3,9.0,30.44,North,11,0.0,0.0,61,0.00,CLR,,0.01,WeatherDisplay:10.37,2013-01-28 01:05:00,
2013-01-27 20:10:00,20.2,9.2,30.43,North,11,0.0,0.0,62,0.00,CLR,,0.01,WeatherDisplay:10.37,2013-01-28 01:10:00,
2013-01-27 20:16:00,20.0,8.7,30.42,North,11,0.0,0.0,61,0.00,CLR,,0.01,WeatherDisplay:10.37,2013-01-28 01:16:00,
2013-01-27 20:21:00,20.0,9.8,30.42,North,11,0.0,0.0,64,0.00,CLR,,0.01,WeatherDisplay:10.37,2013-01-28 01:21:00,
2013-01-27 20:26:00,19.9,10.4,30.42,North,11,0.0,0.0,66,0.00,CLR,,0.01,WeatherDisplay:10.37,2013-01-28 01:26:00,
2013-01-27 20:32:00,19.7,10.5,30.43,North,11,0.0,0.0,67,0.00,CLR,,0.01,WeatherDisplay:10.37,2013-01-28 01:32:00,
2013-01-27 20:37:00,19.5,10.3,30.43,North,11,0.0,0.0,67,0.00,CLR,,0.01,WeatherDisplay:10.37,2013-01-28 01:37:00,
2013-01-27 20:42:00,19.4,10.2,30.43,North,11,0.0,0.0,67,0.00,CLR,,0.01,WeatherDisplay:10.37,2013-01-28 01:42:00,
2013-01-27 20:47:00,19.2,10.7,30.43,North,11,0.0,0.0,69,0.00,CLR,,0.01,WeatherDisplay:10.37,2013-01-28 01:47:00,
2013-01-27 20:52:00,19.1,10.9,30.43,North,11,0.0,0.0,70,0.00,CLR,,0.01,WeatherDisplay:10.37,2013-01-28 01:52:00,
2013-01-27 20:57:00,19.1,10.9,30.42,North,11,0.0,0.0,70,0.00,CLR,,0.01,WeatherDisplay:10.37,2013-01-28 01:57:00,
2013-01-27 21:02:00,18.8,10.9,30.42,North,11,0.0,0.0,71,0.00,CLR,,0.01,WeatherDisplay:10.37,2013-01-28 02:02:00,
2013-01-27 21:07:00,18.6,10.4,30.42,North,11,0.7,2.3,70,0.00,CLR,,0.01,WeatherDisplay:10.37,2013-01-28 02:07:00,
2013-01-27 21:13:00,18.6,10.1,30.43,North,11,0.0,0.0,69,0.00,CLR,,0.01,WeatherDisplay:10.37,2013-01-28 02:13:00,
2013-01-27 21:18:00,18.6,10.4,30.43,North,11,0.0,0.0,70,0.00,CLR,,0.01,WeatherDisplay:10.37,2013-01-28 02:18:00,
2013-01-27 21:23:00,18.4,10.9,30.43,North,11,0.0,0.0,72,0.00,CLR,,0.01,WeatherDisplay:10.37,2013-01-28 02:23:00,
2013-01-27 21:28:00,18.3,10.5,30.44,North,11,0.0,0.0,71,0.00,CLR,,0.01,WeatherDisplay:10.37,2013-01-28 02:28:00,
2013-01-27 21:33:00,18.1,10.3,30.44,North,11,0.0,0.0,71,0.00,CLR,,0.01,WeatherDisplay:10.37,2013-01-28 02:33:00,
2013-01-27 21:38:00,18.1,9.6,30.43,North,11,0.0,0.0,69,0.00,CLR,,0.01,WeatherDisplay:10.37,2013-01-28 02:38:00,
2013-01-27 21:44:00,18.0,9.5,30.42,North,11,0.0,0.0,69,0.00,CLR,,0.01,WeatherDisplay:10.37,2013-01-28 02:44:00,
2013-01-27 21:49:00,17.8,9.3,30.42,North,11,0.0,0.0,69,0.00,CLR,,0.01,WeatherDisplay:10.37,2013-01-28 02:49:00,
2013-01-27 21:54:00,17.7,9.6,30.43,North,11,0.0,0.0,70,0.00,CLR,,0.01,WeatherDisplay:10.37,2013-01-28 02:54:00,
2013-01-27 21:59:00,17.5,10.0,30.43,North,11,0.0,0.0,72,0.00,CLR,,0.01,WeatherDisplay:10.37,2013-01-28 02:59:00,
2013-01-27 22:04:00,17.3,10.1,30.43,North,11,0.0,0.0,73,0.00,CLR,,0.01,WeatherDisplay:10.37,2013-01-28 03:04:00,
2013-01-27 22:09:00,17.0,10.4,30.43,North,11,0.0,0.0,75,0.00,CLR,,0.01,WeatherDisplay:10.37,2013-01-28 03:09:00,
2013-01-27 22:14:00,16.9,10.3,30.43,North,11,0.0,0.0,75,0.00,CLR,,0.01,WeatherDisplay:10.37,2013-01-28 03:14:00,
2013-01-27 22:19:00,16.7,10.1,30.43,North,11,0.0,0.0,75,0.00,CLR,,0.01,WeatherDisplay:10.37,2013-01-28 03:19:00,
2013-01-27 22:25:00,16.7,9.8,30.42,North,11,1.6,2.3,74,0.00,CLR,,0.01,WeatherDisplay:10.37,2013-01-28 03:25:00,
2013-01-27 22:30:00,16.7,9.5,30.43,North,11,0.0,0.0,73,0.00,CLR,,0.01,WeatherDisplay:10.37,2013-01-28 03:30:00,
2013-01-27 22:35:00,16.7,9.8,30.42,North,11,0.0,0.0,74,0.00,CLR,,0.01,WeatherDisplay:10.37,2013-01-28 03:35:00,
2013-01-27 22:40:00,16.5,9.7,30.42,North,11,1.1,2.3,74,0.00,CLR,,0.01,WeatherDisplay:10.37,2013-01-28 03:40:00,
2013-01-27 22:45:00,16.1,9.9,30.42,North,11,0.0,0.0,76,0.00,CLR,,0.01,WeatherDisplay:10.37,2013-01-28 03:45:00,
2013-01-27 22:51:00,15.9,9.7,30.42,North,11,0.0,0.0,76,0.00,CLR,,0.01,WeatherDisplay:10.37,2013-01-28 03:51:00,
2013-01-27 22:56:00,15.9,10.0,30.42,North,11,0.0,1.1,77,0.00,CLR,,0.01,WeatherDisplay:10.37,2013-01-28 03:56:00,
2013-01-27 23:01:00,15.9,10.0,30.42,North,11,0.0,0.0,77,0.00,CLR,,0.01,WeatherDisplay:10.37,2013-01-28 04:01:00,
2013-01-27 23:06:00,15.9,10.0,30.43,North,11,0.0,0.0,77,0.00,CLR,,0.01,WeatherDisplay:10.37,2013-01-28 04:06:00,
2013-01-27 23:11:00,15.9,10.0,30.42,North,11,0.0,0.0,77,0.00,CLR,,0.01,WeatherDisplay:10.37,2013-01-28 04:11:00,
2013-01-27 23:16:00,15.7,9.8,30.42,North,11,0.0,0.0,77,0.00,CLR,,0.01,WeatherDisplay:10.37,2013-01-28 04:16:00,
2013-01-27 23:22:00,15.7,9.8,30.42,North,11,0.0,0.0,77,0.00,CLR,,0.01,WeatherDisplay:10.37,2013-01-28 04:22:00,
2013-01-27 23:27:00,15.7,9.5,30.42,North,11,0.0,0.0,76,0.00,CLR,,0.01,WeatherDisplay:10.37,2013-01-28 04:27:00,
2013-01-27 23:32:00,15.7,9.5,30.42,North,11,0.0,0.0,76,0.00,CLR,,0.01,WeatherDisplay:10.37,2013-01-28 04:32:00,
2013-01-27 23:37:00,15.6,9.4,30.42,North,11,0.0,0.0,76,0.00,CLR,,0.01,WeatherDisplay:10.37,2013-01-28 04:37:00,
2013-01-27 23:43:00,15.6,9.7,30.42,North,11,0.0,0.0,77,0.00,CLR,,0.01,WeatherDisplay:10.37,2013-01-28 04:43:00,
2013-01-27 23:48:00,15.6,9.7,30.42,North,11,0.0,0.0,77,0.00,CLR,,0.01,WeatherDisplay:10.37,2013-01-28 04:48:00,
2013-01-27 23:53:00,15.4,9.5,30.43,North,11,0.0,0.0,77,0.00,CLR,,0.01,WeatherDisplay:10.37,2013-01-28 04:53:00,
2013-01-27 23:58:00,15.4,9.5,30.43,North,11,0.0,0.0,77,0.00,CLR,,0.01,WeatherDisplay:10.37,2013-01-28 04:58:00,